Time;durP1;ratioP1;P1;durP2;ratioP2;P2;SDS_P1;SDS_P2;PMS_P1;PMS_P2;Temp;Humidity;BMP_temperature;BMP_pressure;BME280_temperature;BME280_humidity;BME280_pressure;Samples;Min_cycle;Max_cycle;Signal;HPM_P1;HPM_P2
2022/08/16 00:01:20;;;;;;;1.10;0.20;;;13.40;96.20;;;;;;4991765;28;20381;-75
2022/08/16 00:03:48;;;;;;;0.43;0.20;;;13.50;95.40;;;;;;4991616;28;20373;-77
2022/08/16 00:06:15;;;;;;;1.20;0.40;;;13.50;95.70;;;;;;4991741;28;20567;-78
2022/08/16 00:08:42;;;;;;;0.68;0.40;;;13.60;95.50;;;;;;4991864;28;20781;-79
2022/08/16 00:11:11;;;;;;;0.50;0.30;;;13.80;94.60;;;;;;4991610;28;20389;-77
2022/08/16 00:13:38;;;;;;;0.40;0.40;;;13.90;93.30;;;;;;4977859;28;20390;-78
2022/08/16 00:16:05;;;;;;;1.10;0.40;;;14.00;93.40;;;;;;4991483;28;20385;-76
2022/08/16 00:18:33;;;;;;;0.93;0.30;;;14.10;94.40;;;;;;4991476;28;20377;-80
2022/08/16 00:21:00;;;;;;;1.10;0.40;;;14.20;93.90;;;;;;4991499;28;20388;-78
2022/08/16 00:23:27;;;;;;;0.55;0.30;;;14.20;93.70;;;;;;4991559;28;20404;-78
2022/08/16 00:25:55;;;;;;;0.40;0.28;;;14.30;91.80;;;;;;4991207;28;20377;-80
2022/08/16 00:28:22;;;;;;;0.43;0.30;;;14.40;91.50;;;;;;4991310;28;20505;-80
2022/08/16 00:30:50;;;;;;;0.70;0.40;;;14.50;90.40;;;;;;4991253;28;20392;-77
2022/08/16 00:33:17;;;;;;;1.38;0.40;;;14.40;90.00;;;;;;4993662;28;20389;-80
2022/08/16 00:35:44;;;;;;;0.63;0.40;;;14.50;90.50;;;;;;4991550;28;20792;-80
2022/08/16 00:38:12;;;;;;;1.00;0.30;;;14.80;86.60;;;;;;4991328;28;20396;-79
2022/08/16 00:40:44;;;;;;;1.00;0.40;;;14.90;88.00;;;;;;4991079;28;20380;-79
2022/08/16 00:43:16;;;;;;;0.38;0.30;;;14.90;88.70;;;;;;4991239;28;20455;-77
2022/08/16 00:46:06;;;;;;;1.15;0.40;;;14.90;87.90;;;;;;4990004;28;20822;-80
2022/08/16 00:48:34;;;;;;;1.00;0.40;;;15.00;87.70;;;;;;4990570;28;20904;-80
2022/08/16 00:51:03;;;;;;;0.88;0.50;;;15.20;86.90;;;;;;4973563;28;20805;-76
2022/08/16 00:53:30;;;;;;;0.43;0.30;;;15.20;87.10;;;;;;4991030;28;20476;-75
2022/08/16 00:56:04;;;;;;;0.40;0.40;;;15.30;86.10;;;;;;4990923;28;20381;-79
2022/08/16 00:58:34;;;;;;;0.50;0.40;;;15.20;85.50;;;;;;4991075;28;20416;-76
2022/08/16 01:01:01;;;;;;;0.35;0.35;;;15.30;84.60;;;;;;4990800;28;20512;-76
2022/08/16 01:03:29;;;;;;;0.45;0.38;;;15.30;86.70;;;;;;4991130;28;20411;-76
2022/08/16 01:05:56;;;;;;;0.88;0.25;;;15.40;86.00;;;;;;4991200;28;20459;-77
2022/08/16 01:08:25;;;;;;;0.40;0.40;;;15.60;84.60;;;;;;4990915;28;20459;-75
2022/08/16 01:10:54;;;;;;;1.40;0.30;;;15.70;84.40;;;;;;4991184;28;20376;-76
2022/08/16 01:13:27;;;;;;;0.40;0.30;;;15.80;84.20;;;;;;4977105;28;20387;-78
2022/08/16 01:16:29;;;;;;;0.30;0.20;;;15.80;81.10;;;;;;4990994;28;20381;-78
2022/08/16 01:19:19;;;;;;;0.50;0.20;;;15.90;81.60;;;;;;4949282;29;20392;-76
2022/08/16 01:21:56;;;;;;;0.20;0.20;;;16.00;81.10;;;;;;4949890;29;20823;-79
2022/08/16 01:24:41;;;;;;;1.40;0.30;;;16.10;81.20;;;;;;4949774;29;20504;-77
2022/08/16 01:27:18;;;;;;;0.20;0.20;;;16.40;81.40;;;;;;4949613;29;20404;-76
2022/08/16 01:29:53;;;;;;;4.30;0.40;;;16.90;78.90;;;;;;4949956;29;20886;-77
2022/08/16 01:32:20;;;;;;;0.30;0.30;;;17.40;77.60;;;;;;4949754;29;20876;-76
2022/08/16 01:34:48;;;;;;;0.30;0.10;;;17.80;73.60;;;;;;4949724;29;20426;-77
2022/08/16 01:37:15;;;;;;;0.38;0.13;;;18.40;72.50;;;;;;4949793;29;20376;-81
2022/08/16 01:39:43;;;;;;;0.30;0.20;;;19.00;67.80;;;;;;4949486;29;20435;-76
2022/08/16 01:42:13;;;;;;;3.70;1.15;;;19.30;67.20;;;;;;4949610;29;20376;-75
2022/08/16 01:44:41;;;;;;;0.90;0.20;;;19.60;64.20;;;;;;4946958;29;20392;-78
2022/08/16 01:47:09;;;;;;;0.28;0.20;;;19.40;64.20;;;;;;4949459;29;20474;-79
2022/08/16 01:49:40;;;;;;;0.20;0.20;;;19.30;64.20;;;;;;4949487;29;20396;-76
2022/08/16 01:52:15;;;;;;;0.20;0.20;;;19.50;63.90;;;;;;4949931;29;20380;-77
2022/08/16 01:54:43;;;;;;;0.20;0.20;;;19.50;63.30;;;;;;4959359;28;20470;-76
2022/08/16 01:57:10;;;;;;;0.88;0.10;;;19.80;63.00;;;;;;4992651;28;20372;-79
2022/08/16 01:59:37;;;;;;;1.38;0.20;;;19.50;61.00;;;;;;4994227;28;20384;-76
2022/08/16 02:02:05;;;;;;;0.50;0.10;;;19.70;60.30;;;;;;4994386;28;20875;-76
2022/08/16 02:04:34;;;;;;;0.10;0.10;;;19.70;58.90;;;;;;4976149;28;20408;-74
2022/08/16 02:07:07;;;;;;;0.38;0.10;;;19.90;58.30;;;;;;4994183;28;20407;-78
2022/08/16 02:09:36;;;;;;;0.70;0.20;;;20.00;58.20;;;;;;4993740;28;20396;-76
2022/08/16 02:12:07;;;;;;;0.30;0.20;;;20.00;58.20;;;;;;4993802;28;20388;-78
2022/08/16 02:14:35;;;;;;;0.32;0.20;;;20.00;57.70;;;;;;4993867;28;20887;-76
2022/08/16 02:17:06;;;;;;;0.10;0.10;;;19.90;56.80;;;;;;4993778;28;20825;-75
2022/08/16 02:19:36;;;;;;;2.10;0.35;;;19.60;55.40;;;;;;4993513;28;20417;-76
2022/08/16 02:22:05;;;;;;;0.10;0.10;;;19.10;56.10;;;;;;4993914;28;20459;-77
2022/08/16 02:24:33;;;;;;;0.40;0.20;;;19.30;55.50;;;;;;4993716;28;20369;-77
2022/08/16 02:27:00;;;;;;;1.80;1.45;;;19.10;54.30;;;;;;4993658;28;20408;-76
2022/08/16 02:29:27;;;;;;;0.73;0.20;;;19.30;55.60;;;;;;4993788;28;20409;-75
2022/08/16 02:31:54;;;;;;;1.27;0.20;;;19.40;54.90;;;;;;4993603;28;20925;-79
2022/08/16 02:34:21;;;;;;;1.80;0.10;;;19.60;53.60;;;;;;4993612;28;20393;-79
2022/08/16 02:36:49;;;;;;;0.30;0.10;;;19.80;54.20;;;;;;4993570;28;20421;-77
2022/08/16 02:39:18;;;;;;;0.10;0.10;;;19.70;53.60;;;;;;4993496;28;20872;-76
2022/08/16 02:41:46;;;;;;;0.50;0.20;;;19.80;53.50;;;;;;4993627;28;20536;-75
2022/08/16 02:44:14;;;;;;;0.45;0.20;;;19.60;53.40;;;;;;4993370;28;20476;-76
2022/08/16 02:46:43;;;;;;;0.70;0.17;;;19.60;53.40;;;;;;4993455;28;20444;-77
2022/08/16 02:49:12;;;;;;;0.50;0.30;;;19.80;52.80;;;;;;4993188;28;20443;-79
2022/08/16 02:51:40;;;;;;;2.42;0.40;;;20.10;53.70;;;;;;4993425;28;20376;-79
2022/08/16 02:54:08;;;;;;;0.13;0.10;;;20.20;53.20;;;;;;4993206;28;20416;-77
2022/08/16 02:56:36;;;;;;;0.10;0.10;;;20.30;52.20;;;;;;4993263;28;20381;-75
2022/08/16 02:59:03;;;;;;;0.30;0.17;;;20.40;52.40;;;;;;4992806;28;20385;-79
2022/08/16 03:01:32;;;;;;;1.70;0.17;;;20.40;51.90;;;;;;4993079;28;20381;-76
2022/08/16 03:04:01;;;;;;;1.10;0.20;;;20.50;51.40;;;;;;4992941;28;20423;-79
2022/08/16 03:06:29;;;;;;;0.20;0.17;;;20.90;50.40;;;;;;4992723;28;20409;-77
2022/08/16 03:08:56;;;;;;;0.10;0.10;;;20.90;49.70;;;;;;4992066;28;20405;-76
2022/08/16 03:11:23;;;;;;;0.10;0.10;;;21.10;49.80;;;;;;4992963;28;20455;-78
2022/08/16 03:13:53;;;;;;;0.40;0.10;;;21.40;48.90;;;;;;4978997;28;20385;-76
2022/08/16 03:16:22;;;;;;;0.17;0.10;;;21.50;49.00;;;;;;4992469;28;20860;-77
2022/08/16 03:18:49;;;;;;;1.10;0.20;;;21.60;48.40;;;;;;4992689;28;20758;-80
2022/08/16 03:21:16;;;;;;;0.10;0.10;;;22.00;47.90;;;;;;4992849;28;20427;-77
2022/08/16 03:23:43;;;;;;;0.82;0.20;;;22.10;48.80;;;;;;4992360;28;20436;-76
2022/08/16 03:26:12;;;;;;;0.38;0.10;;;22.10;47.80;;;;;;4992618;28;20464;-77
2022/08/16 03:28:40;;;;;;;0.33;0.30;;;22.30;47.40;;;;;;4992214;28;20416;-79
2022/08/16 03:31:07;;;;;;;2.20;0.20;;;22.60;47.40;;;;;;4992563;28;20733;-77
2022/08/16 03:33:35;;;;;;;0.90;0.30;;;22.80;47.40;;;;;;4992436;28;20381;-79
2022/08/16 03:36:02;;;;;;;0.47;0.20;;;22.70;46.40;;;;;;4992273;28;20722;-76
2022/08/16 03:38:31;;;;;;;0.90;0.40;;;22.50;46.80;;;;;;4992636;28;20813;-78
2022/08/16 03:40:59;;;;;;;0.38;0.22;;;22.90;45.90;;;;;;4991943;28;20452;-76
2022/08/16 03:43:27;;;;;;;2.42;0.85;;;23.10;46.30;;;;;;4992211;28;20423;-77
2022/08/16 03:45:58;;;;;;;1.83;0.20;;;23.30;46.60;;;;;;4991850;28;20883;-76
2022/08/16 03:48:31;;;;;;;2.03;0.30;;;23.30;44.50;;;;;;4992081;28;20405;-81
2022/08/16 03:51:00;;;;;;;1.90;0.30;;;23.20;45.30;;;;;;4991906;28;20377;-77
2022/08/16 03:53:29;;;;;;;0.77;0.17;;;23.50;45.60;;;;;;4992125;28;20780;-76
2022/08/16 03:55:56;;;;;;;0.20;0.20;;;23.00;43.90;;;;;;4991788;28;20464;-77
2022/08/16 03:58:24;;;;;;;0.57;0.20;;;23.10;44.90;;;;;;4992178;28;20397;-77
2022/08/16 04:00:54;;;;;;;7.80;0.50;;;23.40;43.50;;;;;;4991744;28;20480;-76
2022/08/16 04:03:21;;;;;;;2.97;0.50;;;23.30;44.60;;;;;;4991951;28;20420;-79
2022/08/16 04:05:50;;;;;;;1.65;0.43;;;22.30;44.60;;;;;;4991726;28;20443;-77
2022/08/16 04:08:20;;;;;;;4.80;0.60;;;20.70;47.30;;;;;;4991862;28;20408;-77
2022/08/16 04:10:48;;;;;;;1.05;0.20;;;19.70;49.50;;;;;;4991902;28;20463;-79
2022/08/16 04:13:15;;;;;;;0.40;0.22;;;18.60;49.90;;;;;;4978595;28;20391;-78
2022/08/16 04:15:42;;;;;;;0.20;0.20;;;18.60;52.20;;;;;;4991195;28;20451;-78
2022/08/16 04:18:09;;;;;;;0.55;0.20;;;19.40;50.60;;;;;;4991726;28;20393;-78
2022/08/16 04:20:37;;;;;;;0.70;0.22;;;18.80;51.30;;;;;;4974538;28;20784;-79
2022/08/16 04:23:06;;;;;;;0.88;0.20;;;18.80;52.30;;;;;;4991774;28;20384;-78
2022/08/16 04:25:35;;;;;;;0.10;0.10;;;19.70;50.20;;;;;;4991509;28;20416;-76
2022/08/16 04:28:02;;;;;;;0.40;0.20;;;20.50;49.10;;;;;;4991528;28;20764;-76
2022/08/16 04:30:29;;;;;;;0.60;0.30;;;21.00;47.30;;;;;;4991400;28;20444;-77
2022/08/16 04:32:56;;;;;;;0.75;0.30;;;21.10;47.20;;;;;;4991299;28;20384;-76
2022/08/16 04:35:25;;;;;;;0.38;0.20;;;21.20;47.30;;;;;;4991535;28;20466;-76
2022/08/16 04:37:53;;;;;;;0.60;0.30;;;20.90;47.40;;;;;;4991284;28;20586;-76
2022/08/16 04:40:23;;;;;;;0.90;0.25;;;20.80;47.90;;;;;;4991251;28;20395;-76
2022/08/16 04:42:51;;;;;;;2.17;0.40;;;20.80;48.30;;;;;;4991098;28;20446;-78
2022/08/16 04:45:19;;;;;;;0.40;0.30;;;21.10;48.10;;;;;;4991331;28;20404;-80
2022/08/16 04:47:47;;;;;;;1.35;0.20;;;21.50;47.60;;;;;;4990833;28;20419;-79
2022/08/16 04:50:25;;;;;;;0.30;0.30;;;21.60;47.10;;;;;;4990434;28;20466;-76
2022/08/16 04:52:53;;;;;;;1.20;0.30;;;21.90;47.10;;;;;;4991025;28;20861;-79
2022/08/16 04:55:24;;;;;;;0.20;0.20;;;22.10;47.00;;;;;;4991103;28;20385;-76
2022/08/16 04:57:52;;;;;;;0.98;0.30;;;22.70;46.40;;;;;;4990660;28;20408;-78
2022/08/16 05:00:24;;;;;;;1.02;0.38;;;22.50;46.40;;;;;;4990982;28;20409;-76
2022/08/16 05:02:54;;;;;;;0.20;0.20;;;22.20;45.80;;;;;;4990944;28;20393;-79
2022/08/16 05:05:22;;;;;;;1.05;0.40;;;22.40;46.20;;;;;;4990916;28;20408;-78
2022/08/16 05:07:49;;;;;;;0.50;0.22;;;22.70;46.10;;;;;;4990766;28;20942;-76
2022/08/16 05:10:16;;;;;;;0.90;0.35;;;22.20;45.20;;;;;;4991068;28;20393;-76
2022/08/16 05:12:44;;;;;;;1.50;0.28;;;22.00;46.40;;;;;;4982306;28;20374;-76
2022/08/16 05:15:11;;;;;;;0.40;0.30;;;21.80;46.90;;;;;;4986118;28;20427;-76
2022/08/16 05:17:38;;;;;;;1.30;0.52;;;21.70;46.80;;;;;;4991000;28;20707;-77
2022/08/16 05:20:07;;;;;;;0.93;0.30;;;21.50;47.40;;;;;;4990063;28;20475;-77
2022/08/16 05:22:35;;;;;;;1.95;0.45;;;21.20;48.10;;;;;;4973437;28;20388;-77
2022/08/16 05:25:05;;;;;;;1.98;0.40;;;20.90;48.50;;;;;;4990745;28;20412;-76
2022/08/16 05:27:32;;;;;;;1.05;0.40;;;20.30;49.60;;;;;;4990832;28;20405;-76
2022/08/16 05:29:59;;;;;;;1.77;0.50;;;19.40;50.60;;;;;;4990901;28;20948;-76
2022/08/16 05:32:27;;;;;;;4.25;0.57;;;18.60;51.80;;;;;;4993280;28;20385;-79
2022/08/16 05:34:54;;;;;;;2.72;0.60;;;18.20;53.60;;;;;;4995354;28;20826;-78
2022/08/16 05:37:23;;;;;;;4.43;0.52;;;17.90;54.60;;;;;;4994599;28;20417;-78
2022/08/16 05:39:51;;;;;;;2.60;0.60;;;17.60;55.50;;;;;;4977368;28;20427;-76
2022/08/16 05:42:21;;;;;;;5.00;0.70;;;17.40;55.70;;;;;;4994408;28;20472;-79
2022/08/16 05:44:48;;;;;;;1.75;0.45;;;17.40;56.40;;;;;;4994485;28;20439;-78
2022/08/16 05:47:15;;;;;;;0.88;0.40;;;17.30;55.80;;;;;;4994533;28;20396;-78
2022/08/16 05:49:42;;;;;;;1.20;0.30;;;17.30;55.00;;;;;;4994224;28;20448;-79
2022/08/16 05:52:11;;;;;;;0.93;0.30;;;17.30;55.10;;;;;;4994399;28;20421;-79
2022/08/16 05:54:38;;;;;;;0.80;0.30;;;17.30;55.20;;;;;;4994185;28;20376;-79
2022/08/16 05:57:05;;;;;;;1.08;0.30;;;17.20;55.60;;;;;;4994438;28;20923;-77
2022/08/16 05:59:32;;;;;;;1.10;0.40;;;17.20;55.60;;;;;;4994065;28;20910;-78
2022/08/16 06:01:59;;;;;;;1.98;0.30;;;17.10;55.40;;;;;;4994321;28;20721;-77
2022/08/16 06:04:26;;;;;;;3.65;0.50;;;17.00;56.20;;;;;;4993964;28;20408;-77
2022/08/16 06:06:54;;;;;;;2.10;0.30;;;17.20;56.20;;;;;;4994125;28;20460;-77
2022/08/16 06:09:21;;;;;;;3.10;0.40;;;17.10;55.80;;;;;;4994041;28;20934;-77
2022/08/16 06:11:48;;;;;;;2.00;0.40;;;17.20;56.40;;;;;;4992445;28;20403;-78
2022/08/16 06:14:15;;;;;;;3.53;0.50;;;17.30;56.60;;;;;;4981893;28;20427;-76
2022/08/16 06:16:42;;;;;;;1.45;0.60;;;17.30;56.60;;;;;;4993939;28;20416;-76
2022/08/16 06:19:10;;;;;;;2.10;0.52;;;17.10;56.20;;;;;;4993850;28;20385;-77
2022/08/16 06:21:37;;;;;;;1.37;0.40;;;17.00;56.70;;;;;;4993882;28;20385;-76
2022/08/16 06:24:04;;;;;;;2.35;0.38;;;16.90;57.20;;;;;;4993851;28;20377;-77
2022/08/16 06:26:32;;;;;;;1.13;0.40;;;16.80;57.60;;;;;;4993861;28;20523;-76
2022/08/16 06:28:59;;;;;;;1.50;0.60;;;16.70;57.50;;;;;;4993930;28;20443;-79
2022/08/16 06:31:26;;;;;;;0.93;0.43;;;16.70;57.90;;;;;;4993811;28;20769;-76
2022/08/16 06:33:53;;;;;;;1.65;0.40;;;16.60;58.20;;;;;;4993421;28;20385;-75
2022/08/16 06:36:20;;;;;;;1.60;0.40;;;16.50;58.40;;;;;;4993658;28;20385;-78
2022/08/16 06:38:47;;;;;;;0.47;0.30;;;16.40;59.20;;;;;;4993526;28;20385;-76
2022/08/16 06:41:14;;;;;;;0.85;0.50;;;16.40;59.60;;;;;;4993398;28;20740;-76
2022/08/16 06:43:42;;;;;;;1.88;0.50;;;16.50;59.70;;;;;;4993127;28;20385;-75
2022/08/16 06:46:28;;;;;;;2.80;1.00;;;16.50;60.00;;;;;;5003007;28;20412;-79
2022/08/16 06:48:55;;;;;;;1.42;0.90;;;16.40;60.50;;;;;;5000887;28;20420;-79
2022/08/16 06:51:22;;;;;;;3.50;1.00;;;16.40;60.60;;;;;;5005621;28;20373;-81
2022/08/16 06:53:49;;;;;;;3.38;0.70;;;16.50;60.70;;;;;;5003806;28;20447;-80
2022/08/16 06:56:17;;;;;;;3.10;1.20;;;16.60;61.00;;;;;;5009425;28;20433;-76
2022/08/16 06:58:44;;;;;;;1.25;0.70;;;16.50;61.00;;;;;;5013626;28;20440;-76
2022/08/16 07:01:11;;;;;;;1.65;0.80;;;16.50;61.10;;;;;;5003713;28;20788;-76
2022/08/16 07:03:38;;;;;;;3.58;1.50;;;16.40;62.00;;;;;;4994626;28;20420;-78
2022/08/16 07:06:05;;;;;;;5.00;2.33;;;16.40;61.70;;;;;;4993936;28;20476;-77
2022/08/16 07:08:32;;;;;;;3.25;1.92;;;16.30;62.10;;;;;;4993929;28;20413;-76
2022/08/16 07:11:00;;;;;;;5.37;1.87;;;16.20;62.10;;;;;;4993448;28;20776;-76
2022/08/16 07:13:27;;;;;;;6.00;3.50;;;16.10;62.90;;;;;;4979809;28;20387;-76
2022/08/16 07:15:54;;;;;;;9.25;2.47;;;16.00;63.00;;;;;;4993539;28;20784;-77
2022/08/16 07:18:22;;;;;;;9.52;3.90;;;15.90;63.40;;;;;;4993269;28;20385;-76
2022/08/16 07:20:52;;;;;;;4.20;1.97;;;15.70;64.30;;;;;;4992915;28;20390;-76
2022/08/16 07:23:20;;;;;;;4.80;1.50;;;15.70;64.00;;;;;;4975665;28;20396;-76
2022/08/16 07:25:47;;;;;;;4.93;1.25;;;15.50;64.40;;;;;;4992994;28;20715;-75
2022/08/16 07:28:16;;;;;;;5.25;0.98;;;15.40;64.90;;;;;;4992752;28;20452;-74
2022/08/16 07:30:45;;;;;;;5.07;1.20;;;15.20;65.80;;;;;;4992135;28;20392;-73
2022/08/16 07:33:15;;;;;;;5.30;1.23;;;15.10;66.30;;;;;;4991925;28;20393;-73
2022/08/16 07:35:43;;;;;;;4.45;1.30;;;15.00;66.80;;;;;;4991870;28;20419;-74
2022/08/16 07:38:10;;;;;;;3.15;1.30;;;15.00;66.90;;;;;;4991756;28;20408;-75
2022/08/16 07:40:38;;;;;;;4.10;1.65;;;14.90;67.70;;;;;;4991092;28;20393;-73
2022/08/16 07:43:05;;;;;;;3.53;0.88;;;14.80;68.60;;;;;;4991702;28;20446;-74
2022/08/16 07:45:32;;;;;;;6.35;0.93;;;14.70;68.80;;;;;;4995402;28;20780;-78
2022/08/16 07:48:00;;;;;;;6.25;0.80;;;14.60;69.20;;;;;;4991109;28;20412;-72
2022/08/16 07:50:27;;;;;;;2.13;0.90;;;14.40;69.90;;;;;;4991943;28;20921;-77
2022/08/16 07:52:55;;;;;;;4.63;0.75;;;14.30;70.70;;;;;;4974040;28;20397;-72
2022/08/16 07:55:22;;;;;;;2.85;0.80;;;14.20;71.20;;;;;;4991469;28;20389;-72
2022/08/16 07:57:49;;;;;;;2.95;0.70;;;14.20;71.80;;;;;;4989159;28;20401;-73
2022/08/16 08:00:16;;;;;;;1.88;0.80;;;14.10;72.00;;;;;;4992052;28;20970;-71
2022/08/16 08:02:46;;;;;;;2.70;0.73;;;14.10;72.90;;;;;;4990592;28;20439;-71
2022/08/16 08:05:14;;;;;;;1.60;0.75;;;14.00;72.80;;;;;;4991705;28;20409;-74
2022/08/16 08:07:41;;;;;;;3.38;0.70;;;14.10;72.80;;;;;;4991488;28;20515;-72
2022/08/16 08:10:09;;;;;;;1.85;0.60;;;14.10;72.90;;;;;;4991343;28;20455;-75
2022/08/16 08:12:36;;;;;;;2.15;0.65;;;14.10;73.50;;;;;;4984304;28;21182;-75
2022/08/16 08:15:06;;;;;;;2.57;0.60;;;14.10;74.00;;;;;;4985964;28;20395;-73
2022/08/16 08:17:37;;;;;;;5.80;0.80;;;14.10;74.00;;;;;;4991343;28;20388;-73
2022/08/16 08:20:06;;;;;;;3.25;0.68;;;14.10;74.20;;;;;;4991531;28;20756;-73
2022/08/16 08:22:33;;;;;;;3.05;0.90;;;14.10;74.60;;;;;;4991009;28;20389;-73
2022/08/16 08:25:01;;;;;;;2.63;0.88;;;14.00;75.40;;;;;;4986083;28;20386;-76
2022/08/16 08:27:29;;;;;;;2.88;0.82;;;14.00;76.10;;;;;;4991235;28;20484;-75
2022/08/16 08:29:57;;;;;;;2.63;0.80;;;13.90;76.40;;;;;;4990928;28;20404;-78
2022/08/16 08:32:27;;;;;;;3.67;0.90;;;13.80;77.60;;;;;;4988226;28;20432;-74
2022/08/16 08:34:57;;;;;;;2.05;0.90;;;13.70;78.20;;;;;;4991123;28;20412;-75
2022/08/16 08:37:26;;;;;;;2.80;0.85;;;13.60;79.10;;;;;;4990810;28;20400;-74
2022/08/16 08:39:54;;;;;;;3.50;1.00;;;13.60;79.80;;;;;;4991010;28;20484;-75
2022/08/16 08:42:21;;;;;;;2.70;1.35;;;13.60;80.70;;;;;;4991036;28;20385;-74
2022/08/16 08:44:48;;;;;;;3.65;1.20;;;13.60;81.40;;;;;;4990160;28;20473;-74
2022/08/16 08:47:15;;;;;;;5.30;1.10;;;13.50;82.10;;;;;;4990835;28;20409;-76
2022/08/16 08:49:42;;;;;;;4.25;0.88;;;13.50;82.90;;;;;;4991088;28;20872;-74
2022/08/16 08:52:10;;;;;;;3.53;0.90;;;13.50;83.20;;;;;;4991017;28;20458;-74
2022/08/16 08:54:37;;;;;;;2.80;0.73;;;13.40;83.20;;;;;;4990436;28;20402;-80
2022/08/16 08:57:06;;;;;;;1.60;0.43;;;13.40;82.80;;;;;;4981917;28;20373;-74
2022/08/16 08:59:33;;;;;;;1.83;0.52;;;13.40;83.40;;;;;;4990244;28;20444;-74
2022/08/16 09:02:01;;;;;;;2.90;0.50;;;13.30;84.00;;;;;;4990955;28;20416;-80
2022/08/16 09:04:29;;;;;;;1.35;0.50;;;13.30;84.60;;;;;;4990027;28;20439;-79
2022/08/16 09:06:56;;;;;;;1.63;0.40;;;13.20;85.80;;;;;;4990286;28;20392;-75
2022/08/16 09:09:23;;;;;;;1.25;0.50;;;13.10;86.40;;;;;;4990922;28;20940;-76
2022/08/16 09:11:51;;;;;;;2.03;0.43;;;13.00;86.90;;;;;;4988761;28;20381;-74
2022/08/16 09:14:18;;;;;;;2.03;0.50;;;12.90;87.60;;;;;;4978286;28;20530;-83
2022/08/16 09:16:45;;;;;;;1.27;0.40;;;12.90;88.10;;;;;;4989465;28;20463;-75
2022/08/16 09:19:12;;;;;;;2.28;0.60;;;12.90;88.50;;;;;;4990388;28;20439;-76
2022/08/16 09:21:39;;;;;;;0.93;0.45;;;12.80;89.30;;;;;;4990211;28;20388;-75
2022/08/16 09:24:07;;;;;;;2.20;0.50;;;12.80;89.90;;;;;;4990702;28;20377;-78
2022/08/16 09:26:35;;;;;;;3.13;0.60;;;12.70;90.20;;;;;;4989976;28;20908;-75
2022/08/16 09:29:03;;;;;;;0.93;0.35;;;12.70;90.60;;;;;;4989482;28;20428;-76
2022/08/16 09:31:30;;;;;;;4.82;0.70;;;12.60;91.10;;;;;;4989829;28;20388;-74
2022/08/16 09:33:57;;;;;;;3.25;0.70;;;12.50;91.70;;;;;;4990084;28;20399;-75
2022/08/16 09:36:24;;;;;;;3.47;0.60;;;12.50;92.00;;;;;;4972432;28;20385;-75
2022/08/16 09:38:51;;;;;;;5.50;0.77;;;12.40;92.70;;;;;;4990145;28;20813;-76
2022/08/16 09:41:18;;;;;;;2.45;0.80;;;12.30;93.20;;;;;;4990271;28;20463;-75
2022/08/16 09:43:45;;;;;;;3.78;0.80;;;12.20;93.80;;;;;;4988764;28;20844;-77
2022/08/16 09:46:13;;;;;;;3.38;0.70;;;12.10;94.50;;;;;;4968781;28;20409;-74
2022/08/16 09:48:40;;;;;;;3.67;0.73;;;12.00;95.00;;;;;;4986165;28;20853;-74
2022/08/16 09:51:09;;;;;;;3.53;0.75;;;11.90;95.60;;;;;;4989665;28;20431;-75
2022/08/16 09:53:37;;;;;;;3.95;0.70;;;11.90;96.00;;;;;;4989715;28;20377;-76
2022/08/16 09:56:10;;;;;;;3.40;0.73;;;11.90;96.60;;;;;;4990180;28;20389;-76
2022/08/16 09:58:37;;;;;;;2.10;0.50;;;11.80;96.80;;;;;;4988809;28;20396;-75
2022/08/16 10:01:04;;;;;;;2.85;0.60;;;11.80;97.10;;;;;;4989737;28;20938;-74
2022/08/16 10:03:31;;;;;;;1.10;0.50;;;11.70;97.70;;;;;;4989758;28;20397;-76
2022/08/16 10:05:58;;;;;;;1.88;0.40;;;11.70;97.80;;;;;;4989814;28;20408;-73
2022/08/16 10:08:26;;;;;;;2.00;0.60;;;11.60;98.20;;;;;;4989730;28;20435;-73
2022/08/16 10:13:40;;;;;;;1.52;0.90;;;11.60;98.80;;;;;;4978828;28;20465;-74
2022/08/16 10:16:07;;;;;;;1.40;0.40;;;11.60;99.10;;;;;;4990267;28;20460;-77
2022/08/16 10:18:35;;;;;;;1.20;0.50;;;11.60;99.20;;;;;;4992617;28;20393;-76
2022/08/16 10:21:02;;;;;;;0.70;0.40;;;11.60;99.50;;;;;;4976010;28;20395;-73
2022/08/16 10:23:29;;;;;;;0.73;0.40;;;11.60;99.60;;;;;;4993522;28;20393;-74
2022/08/16 10:25:56;;;;;;;1.05;0.40;;;11.60;99.60;;;;;;4993249;28;20420;-74
2022/08/16 10:28:24;;;;;;;0.40;0.32;;;11.50;99.80;;;;;;4993298;28;20412;-75
2022/08/16 10:30:51;;;;;;;2.35;0.40;;;11.50;99.90;;;;;;4992103;28;20396;-74
2022/08/16 10:33:19;;;;;;;3.63;0.43;;;11.40;99.90;;;;;;4992617;28;20421;-75
2022/08/16 10:35:46;;;;;;;0.50;0.40;;;11.50;99.90;;;;;;4993453;28;20460;-73
2022/08/16 10:38:15;;;;;;;2.20;0.70;;;11.40;99.90;;;;;;4993432;28;20984;-73
2022/08/16 10:40:42;;;;;;;1.63;0.70;;;11.30;99.90;;;;;;4992525;28;20400;-74
2022/08/16 10:43:10;;;;;;;4.03;1.80;;;11.20;99.90;;;;;;4993241;28;20435;-73
2022/08/16 10:45:37;;;;;;;4.57;2.33;;;11.10;99.90;;;;;;4992819;28;20384;-73
2022/08/16 10:48:08;;;;;;;6.15;3.30;;;11.00;99.90;;;;;;4993173;28;20460;-74
2022/08/16 10:50:36;;;;;;;1.38;1.00;;;10.90;99.90;;;;;;4989299;28;20777;-75
2022/08/16 10:53:05;;;;;;;3.92;2.38;;;10.80;99.90;;;;;;4992429;28;20441;-72
2022/08/16 10:55:40;;;;;;;5.75;3.30;;;10.70;99.90;;;;;;4992765;28;20815;-73
2022/08/16 10:58:10;;;;;;;5.78;2.47;;;10.60;99.90;;;;;;4992715;28;20880;-73
2022/08/16 11:00:39;;;;;;;3.00;1.63;;;10.60;99.90;;;;;;4992903;28;20741;-73
2022/08/16 11:03:08;;;;;;;1.50;0.77;;;10.50;99.90;;;;;;4992912;28;20395;-72
2022/08/16 11:05:38;;;;;;;1.67;0.63;;;10.40;99.90;;;;;;4992779;28;20400;-74
2022/08/16 11:08:07;;;;;;;2.20;1.00;;;10.40;99.90;;;;;;4989731;28;20431;-73
2022/08/16 11:10:37;;;;;;;2.35;1.08;;;10.30;99.90;;;;;;4992289;28;20472;-73
2022/08/16 11:13:08;;;;;;;2.40;1.60;;;10.20;99.90;;;;;;4989435;28;20403;-73
2022/08/16 11:15:36;;;;;;;2.00;1.30;;;10.20;99.90;;;;;;4992666;28;20483;-74
2022/08/16 11:18:05;;;;;;;1.73;1.27;;;10.10;99.90;;;;;;4992764;28;20456;-74
2022/08/16 11:20:32;;;;;;;1.73;0.90;;;10.10;99.90;;;;;;4992445;28;20733;-73
2022/08/16 11:22:59;;;;;;;4.43;1.63;;;10.00;99.90;;;;;;4975197;28;20764;-77
2022/08/16 11:25:28;;;;;;;2.45;1.40;;;10.00;99.90;;;;;;4991720;28;20389;-74
2022/08/16 11:27:56;;;;;;;5.70;1.70;;;9.90;99.90;;;;;;4992082;28;20849;-73
2022/08/16 11:30:25;;;;;;;7.90;2.60;;;9.90;99.90;;;;;;4991720;28;20385;-73
2022/08/16 11:32:52;;;;;;;8.07;2.47;;;9.80;99.90;;;;;;4992483;28;20747;-73
2022/08/16 11:35:23;;;;;;;5.60;2.63;;;9.70;99.90;;;;;;4992090;28;20891;-73
2022/08/16 11:38:01;;;;;;;5.97;2.90;;;9.80;99.90;;;;;;4992294;28;20415;-73
2022/08/16 11:40:36;;;;;;;7.65;3.22;;;9.80;99.90;;;;;;4991487;28;20389;-73
2022/08/16 11:43:05;;;;;;;9.90;4.30;;;9.80;99.90;;;;;;4987095;28;21297;-75
2022/08/16 11:45:34;;;;;;;7.70;4.55;;;9.80;99.90;;;;;;4991270;28;20684;-73
2022/08/16 11:48:03;;;;;;;6.63;3.30;;;9.80;99.90;;;;;;4992077;28;20447;-73
2022/08/16 11:50:34;;;;;;;6.45;3.13;;;9.80;99.90;;;;;;4992250;28;20826;-75
2022/08/16 11:53:02;;;;;;;11.75;3.08;;;9.70;99.90;;;;;;4991363;28;20373;-73
2022/08/16 11:55:29;;;;;;;31.03;4.63;;;9.70;99.90;;;;;;4992247;28;20407;-74
2022/08/16 11:57:56;;;;;;;31.75;4.80;;;9.70;99.90;;;;;;4991953;28;20455;-76
2022/08/16 12:00:23;;;;;;;30.75;4.43;;;9.60;99.90;;;;;;4991629;28;20452;-73
2022/08/16 12:02:51;;;;;;;24.07;2.93;;;9.70;99.90;;;;;;4991766;28;20856;-73
2022/08/16 12:05:18;;;;;;;18.10;2.65;;;9.70;99.90;;;;;;4991759;28;20897;-76
2022/08/16 12:07:45;;;;;;;25.65;3.03;;;9.70;99.90;;;;;;4997772;28;20406;-73
2022/08/16 12:10:19;;;;;;;22.58;3.50;;;9.80;99.90;;;;;;4978066;28;20413;-75
2022/08/16 12:12:46;;;;;;;22.73;3.58;;;10.00;99.90;;;;;;4995431;28;20450;-76
2022/08/16 12:15:14;;;;;;;22.30;3.13;;;10.00;99.90;;;;;;5001441;28;20375;-74
2022/08/16 12:17:43;;;;;;;17.33;2.90;;;10.10;99.90;;;;;;4992203;28;20408;-76
2022/08/16 12:20:20;;;;;;;19.55;3.20;;;10.00;99.90;;;;;;4991605;28;20432;-75
2022/08/16 12:22:47;;;;;;;18.73;4.03;;;9.90;99.90;;;;;;4990992;28;20388;-74
2022/08/16 12:25:16;;;;;;;36.45;13.20;;;9.80;99.90;;;;;;4991655;28;20392;-76
2022/08/16 12:27:45;;;;;;;30.60;12.37;;;9.70;99.90;;;;;;4991417;28;20458;-73
2022/08/16 12:30:15;;;;;;;16.23;7.03;;;9.60;99.90;;;;;;4992621;28;20474;-74
2022/08/16 12:32:42;;;;;;;13.02;4.80;;;9.50;99.90;;;;;;5002281;28;20389;-75
2022/08/16 12:35:14;;;;;;;12.77;3.65;;;9.40;99.90;;;;;;4991435;28;20910;-77
2022/08/16 12:37:43;;;;;;;13.63;4.20;;;9.40;99.90;;;;;;4996435;28;20384;-74
2022/08/16 12:40:19;;;;;;;19.70;4.93;;;9.20;99.90;;;;;;4990477;28;20407;-74
2022/08/16 12:42:48;;;;;;;16.67;4.60;;;9.10;99.90;;;;;;4990712;28;20396;-75
2022/08/16 12:45:17;;;;;;;31.83;14.65;;;9.00;99.90;;;;;;4991035;28;20388;-75
2022/08/16 12:50:30;;;;;;;23.17;10.88;;;8.90;99.90;;;;;;4983599;28;20725;-74
2022/08/16 12:52:57;;;;;;;19.83;8.10;;;8.80;99.90;;;;;;4990426;28;20464;-76
2022/08/16 12:55:25;;;;;;;10.57;3.95;;;8.80;99.90;;;;;;4991246;28;20788;-74
2022/08/16 12:57:56;;;;;;;9.60;2.70;;;8.70;99.90;;;;;;4991043;28;20397;-75
2022/08/16 13:00:28;;;;;;;7.83;2.97;;;8.70;99.90;;;;;;4990661;28;20477;-77